createdAt,value
2019-06-27T00:06:51.188Z,89.69
2019-06-27T00:13:24.670Z,90.84
2019-06-27T00:15:55.168Z,91.52
2019-06-27T00:18:26.019Z,92.06
2019-06-27T00:21:11.731Z,92.16
2019-06-27T00:23:41.688Z,92.30
2019-06-27T00:26:19.953Z,92.33
2019-06-27T00:28:54.452Z,92.11
2019-06-27T00:31:26.634Z,92.12
2019-06-27T00:34:00.176Z,92.17
2019-06-27T00:36:36.589Z,92.36
2019-06-27T00:39:08.907Z,92.67
2019-06-27T00:41:39.583Z,92.60
2019-06-27T00:44:09.848Z,92.72
2019-06-27T00:46:40.501Z,93.00
2019-06-27T00:49:14.818Z,93.49
2019-06-27T00:51:47.759Z,93.97
2019-06-27T00:54:18.761Z,94.57
2019-06-27T00:56:51.419Z,94.97
2019-06-27T00:59:23.340Z,94.95
2019-06-27T01:01:55.382Z,95.50
2019-06-27T01:04:34.711Z,95.81
2019-06-27T01:07:06.162Z,95.60
2019-06-27T01:09:37.156Z,96.02
2019-06-27T01:12:11.394Z,96.21
2019-06-27T01:14:42.250Z,96.84
2019-06-27T01:17:17.639Z,96.50
2019-06-27T01:19:48.255Z,96.85
2019-06-27T01:22:18.526Z,97.38
2019-06-27T01:24:48.884Z,97.79
2019-06-27T01:27:29.632Z,97.85
2019-06-27T01:29:51.586Z,97.49
2019-06-27T01:32:22.095Z,97.53
2019-06-27T01:34:58.250Z,96.91
2019-06-27T01:37:30.407Z,96.57
2019-06-27T01:40:04.313Z,97.02
2019-06-27T01:42:37.234Z,97.18
2019-06-27T01:45:36.837Z,97.37
2019-06-27T01:48:08.389Z,96.20
2019-06-27T01:50:40.001Z,96.34
2019-06-27T01:53:10.725Z,96.88
2019-06-27T01:55:41.187Z,97.86
2019-06-27T01:58:11.484Z,99.29
2019-06-27T02:00:44.008Z,99.01
2019-06-27T02:03:14.433Z,97.93
2019-06-27T02:07:22.364Z,97.05
2019-06-27T02:08:19.524Z,96.79
2019-06-27T02:17:36.274Z,96.99
2019-06-27T02:20:08.346Z,97.73
2019-06-27T02:22:41.533Z,98.19
2019-06-27T02:25:21.811Z,98.89
2019-06-27T02:28:03.152Z,99.14
2019-06-27T02:30:44.108Z,99.26
2019-06-27T02:33:14.704Z,99.75
2019-06-27T02:35:45.380Z,99.20
2019-06-27T02:38:15.789Z,99.68
2019-06-27T02:40:46.256Z,99.79
2019-06-27T02:43:16.698Z,99.89
2019-06-27T02:45:47.805Z,100.00
2019-06-27T02:48:18.294Z,100.00
2019-06-27T02:50:50.477Z,100.00
2019-06-27T02:53:24.089Z,100.00
2019-06-27T02:55:56.910Z,100.00
2019-06-27T02:58:34.831Z,100.00
2019-06-27T03:01:05.032Z,100.00
2019-06-27T03:03:37.514Z,100.00
2019-06-27T03:06:08.252Z,100.00
2019-06-27T03:08:41.011Z,100.00
2019-06-27T03:11:15.006Z,100.00
2019-06-27T03:13:45.291Z,100.00
2019-06-27T03:16:16.063Z,100.00
2019-06-27T03:18:46.336Z,100.00
2019-06-27T03:21:17.084Z,100.00
2019-06-27T03:23:47.844Z,100.00
2019-06-27T03:26:18.245Z,100.00
2019-06-27T03:28:52.697Z,100.00
2019-06-27T03:31:20.576Z,100.00
2019-06-27T03:33:53.985Z,100.00
2019-06-27T03:36:24.365Z,100.00
2019-06-27T03:38:55.317Z,100.00
2019-06-27T03:41:25.678Z,100.00
2019-06-27T03:43:55.897Z,100.00
2019-06-27T03:46:26.210Z,100.00
2019-06-27T03:48:57.380Z,100.00
2019-06-27T03:51:27.678Z,100.00
2019-06-27T03:53:58.180Z,100.00
2019-06-27T03:56:29.664Z,100.00
2019-06-27T03:59:12.504Z,100.00
2019-06-27T04:01:32.179Z,100.00
2019-06-27T04:04:35.177Z,100.00
2019-06-27T04:07:41.073Z,100.00
2019-06-27T04:10:17.550Z,100.00
2019-06-27T04:12:54.696Z,100.00
2019-06-27T04:15:44.929Z,100.00
2019-06-27T04:18:15.795Z,100.00
2019-06-27T04:20:46.526Z,100.00
2019-06-27T04:23:16.778Z,100.00
2019-06-27T04:25:58.149Z,100.00
2019-06-27T04:29:35.132Z,100.00
2019-06-27T04:32:06.266Z,100.00
2019-06-27T04:34:36.790Z,100.00
2019-06-27T04:37:12.170Z,100.00
2019-06-27T04:39:44.581Z,100.00
2019-06-27T04:42:14.892Z,100.00
2019-06-27T04:44:45.191Z,100.00
2019-06-27T04:47:15.480Z,100.00
2019-06-27T04:49:45.761Z,100.00
2019-06-27T04:52:16.019Z,100.00
2019-06-27T04:54:46.378Z,100.00
2019-06-27T04:57:16.886Z,100.00
2019-06-27T04:59:53.548Z,99.88
2019-06-27T05:02:20.370Z,99.55
2019-06-27T05:04:50.767Z,98.76
2019-06-27T05:07:21.322Z,99.21
2019-06-27T05:10:32.760Z,98.83
2019-06-27T05:13:04.288Z,98.56
2019-06-27T05:15:34.926Z,98.07
2019-06-27T05:18:08.534Z,96.89
2019-06-27T05:20:45.122Z,96.28
2019-06-27T05:23:15.727Z,95.26
2019-06-27T05:25:45.900Z,93.92
2019-06-27T05:28:25.486Z,94.37
2019-06-27T05:31:07.679Z,94.12
2019-06-27T05:33:37.875Z,93.75
2019-06-27T05:36:08.286Z,93.84
2019-06-27T05:38:38.425Z,93.06
2019-06-27T05:41:09.473Z,93.45
2019-06-27T05:43:41.936Z,92.06
2019-06-27T05:46:12.109Z,91.32
2019-06-27T05:48:42.404Z,84.05
2019-06-27T05:51:12.667Z,82.13
2019-06-27T05:53:45.604Z,81.83
2019-06-27T05:56:20.902Z,81.23
2019-06-27T05:58:52.439Z,81.75
2019-06-27T06:01:25.640Z,80.93
2019-06-27T06:03:55.907Z,81.42
2019-06-27T06:06:26.028Z,80.21
2019-06-27T06:08:56.242Z,79.01
2019-06-27T06:11:29.435Z,78.25
2019-06-27T06:13:59.590Z,78.68
2019-06-27T06:16:30.628Z,77.20
2019-06-27T06:19:00.851Z,76.58
2019-06-27T06:21:31.048Z,76.39
2019-06-27T06:24:01.302Z,75.81
2019-06-27T06:26:31.522Z,76.12
2019-06-27T06:29:01.721Z,75.18
2019-06-27T06:31:32.033Z,75.18
2019-06-27T06:34:02.122Z,74.79
2019-06-27T06:36:32.229Z,74.60
2019-06-27T06:39:02.693Z,74.92
2019-06-27T06:41:32.881Z,74.26
2019-06-27T06:44:03.183Z,73.60
2019-06-27T06:46:33.948Z,73.37
2019-06-27T06:49:04.650Z,72.76
2019-06-27T06:51:34.799Z,73.88
2019-06-27T06:54:05.403Z,73.41
2019-06-27T06:56:35.521Z,73.19
2019-06-27T06:59:06.258Z,73.06
2019-06-27T07:01:36.535Z,72.27
2019-06-27T07:04:14.697Z,71.94
2019-06-27T07:06:47.321Z,72.11
2019-06-27T07:09:21.084Z,73.02
2019-06-27T07:11:55.020Z,72.33
2019-06-27T07:14:27.126Z,72.97
2019-06-27T07:16:58.160Z,70.62
2019-06-27T07:19:29.018Z,69.92
2019-06-27T07:22:01.849Z,69.87
2019-06-27T07:24:33.049Z,70.02
2019-06-27T07:27:33.100Z,69.55
2019-06-27T07:30:14.018Z,68.67
2019-06-27T07:32:46.405Z,69.28
2019-06-27T07:35:43.230Z,67.33
2019-06-27T07:38:22.479Z,68.05
2019-06-27T07:41:07.699Z,68.10
2019-06-27T07:43:38.813Z,67.96
2019-06-27T07:46:25.409Z,67.98
2019-06-27T07:52:14.063Z,67.84
2019-06-27T08:07:58.588Z,64.04
2019-06-27T08:10:34.368Z,64.27
2019-06-27T08:20:04.428Z,65.43
2019-06-27T08:23:22.470Z,62.29
2019-06-27T08:25:58.071Z,61.53
2019-06-27T08:32:40.584Z,62.08
2019-06-27T08:35:36.342Z,60.47
2019-06-27T08:38:26.493Z,59.80
2019-06-27T08:46:22.489Z,60.14
2019-06-27T08:59:26.606Z,51.85
2019-06-27T09:02:15.771Z,50.58
2019-06-27T09:04:47.088Z,52.53
2019-06-27T09:11:06.833Z,52.01
2019-06-27T09:13:57.853Z,48.55
2019-06-27T09:32:23.905Z,44.22
2019-06-27T09:34:48.027Z,39.98
2019-06-27T09:37:19.754Z,39.09
2019-06-27T09:39:50.355Z,39.39
2019-06-27T09:42:21.417Z,39.03
2019-06-27T09:44:51.957Z,38.27
2019-06-27T09:47:22.199Z,39.00
2019-06-27T09:49:52.317Z,39.45
2019-06-27T09:52:23.104Z,39.68
2019-06-27T09:59:01.165Z,39.94
2019-06-27T10:01:32.330Z,39.93
2019-06-27T10:04:14.202Z,37.86
2019-06-27T10:09:54.785Z,35.69
2019-06-27T10:13:00.367Z,39.35
2019-06-27T10:15:31.187Z,38.52
2019-06-27T10:18:02.930Z,37.83
2019-06-27T10:20:55.188Z,36.84
2019-06-27T10:27:29.808Z,35.69
2019-06-27T10:30:11.037Z,37.97
2019-06-27T10:33:25.980Z,34.29
2019-06-27T10:36:42.957Z,36.02
2019-06-27T10:39:59.840Z,35.37
2019-06-27T10:42:36.830Z,36.61
2019-06-27T10:45:09.334Z,35.34
2019-06-27T10:48:27.721Z,36.71
2019-06-27T10:50:58.196Z,35.67
2019-06-27T10:53:39.491Z,37.20
2019-06-27T10:56:24.511Z,37.81
2019-06-27T10:58:55.353Z,39.22
2019-06-27T11:01:27.035Z,39.45
2019-06-27T11:04:17.982Z,40.08
2019-06-27T11:06:48.217Z,39.39
2019-06-27T11:09:19.555Z,41.49
2019-06-27T11:11:50.603Z,41.74
2019-06-27T11:14:23.423Z,42.30
2019-06-27T11:17:15.989Z,42.71
2019-06-27T11:19:52.453Z,42.16
2019-06-27T11:22:19.698Z,44.14
2019-06-27T11:24:50.338Z,44.42
2019-06-27T11:27:20.603Z,41.49
2019-06-27T11:29:51.684Z,41.09
2019-06-27T11:32:26.162Z,39.46
2019-06-27T11:34:56.418Z,38.38
2019-06-27T11:37:26.670Z,37.63
2019-06-27T11:39:56.855Z,37.65
2019-06-27T11:42:29.822Z,37.42
2019-06-27T11:44:59.796Z,33.38
2019-06-27T11:47:29.956Z,33.29
2019-06-27T11:50:00.436Z,30.22
2019-06-27T11:52:30.790Z,29.79
2019-06-27T11:55:02.080Z,29.35
2019-06-27T11:57:32.305Z,28.96
2019-06-27T12:00:02.521Z,30.68
2019-06-27T12:02:32.718Z,27.75
2019-06-27T12:05:02.916Z,30.71
2019-06-27T12:07:33.930Z,29.55
2019-06-27T12:10:04.250Z,28.95
2019-06-27T12:12:35.731Z,28.26
2019-06-27T12:15:06.592Z,27.96
2019-06-27T12:17:36.730Z,28.01
2019-06-27T12:20:09.067Z,26.12
2019-06-27T12:22:39.701Z,25.04
2019-06-27T12:25:11.861Z,26.05
2019-06-27T12:27:41.993Z,27.57
2019-06-27T12:30:13.961Z,27.80
2019-06-27T12:32:51.971Z,27.91
2019-06-27T12:35:16.207Z,28.97
2019-06-27T12:37:47.727Z,28.51
2019-06-27T12:40:18.127Z,26.59
2019-06-27T12:42:48.756Z,28.29
2019-06-27T12:45:19.994Z,24.12
2019-06-27T12:47:50.621Z,24.67
2019-06-27T12:50:20.961Z,24.50
2019-06-27T12:52:51.469Z,25.68
2019-06-27T12:55:22.051Z,27.78
2019-06-27T12:57:52.298Z,29.44
2019-06-27T13:00:22.549Z,28.97
2019-06-27T13:02:53.844Z,29.41
2019-06-27T13:05:24.094Z,27.60
2019-06-27T13:07:54.240Z,29.09
2019-06-27T13:10:25.824Z,31.89
2019-06-27T13:12:56.727Z,31.56
2019-06-27T13:15:27.251Z,29.77
2019-06-27T13:17:58.403Z,28.61
2019-06-27T13:20:28.640Z,28.24
2019-06-27T13:22:58.810Z,27.92
2019-06-27T13:25:28.949Z,26.27
2019-06-27T13:27:59.519Z,26.85
2019-06-27T13:30:29.731Z,25.41
2019-06-27T13:33:00.202Z,23.26
2019-06-27T13:35:30.387Z,23.23
2019-06-27T13:38:00.610Z,23.33
2019-06-27T13:40:30.733Z,24.22
2019-06-27T13:43:01.089Z,23.93
2019-06-27T13:45:31.786Z,22.46
2019-06-27T13:48:02.041Z,22.45
2019-06-27T13:50:32.334Z,23.85
2019-06-27T13:53:03.849Z,23.68
2019-06-27T13:55:34.046Z,23.55
2019-06-27T13:58:04.225Z,24.27
2019-06-27T14:00:41.948Z,23.82
2019-06-27T14:03:12.089Z,24.04
2019-06-27T14:05:43.529Z,23.98
2019-06-27T14:08:13.801Z,23.83
2019-06-27T14:10:44.045Z,24.37
2019-06-27T14:13:14.258Z,24.67
2019-06-27T14:15:49.117Z,25.67
2019-06-27T14:18:19.588Z,25.64
2019-06-27T14:20:49.833Z,26.40
2019-06-27T14:23:20.292Z,26.10
2019-06-27T14:25:50.424Z,25.75
2019-06-27T14:28:21.065Z,26.25
2019-06-27T14:31:29.623Z,26.73
2019-06-27T14:34:03.422Z,26.49
2019-06-27T14:36:35.200Z,26.82
2019-06-27T14:39:16.920Z,27.18
2019-06-27T14:41:47.987Z,27.34
2019-06-27T14:44:55.481Z,26.84
2019-06-27T14:47:26.127Z,26.59
2019-06-27T14:49:57.261Z,25.87
2019-06-27T14:52:27.951Z,26.69
2019-06-27T14:54:58.268Z,26.73
2019-06-27T14:57:30.524Z,27.70
2019-06-27T15:00:02.116Z,27.84
2019-06-27T15:02:33.815Z,28.38
2019-06-27T15:05:05.183Z,29.15
2019-06-27T15:07:37.806Z,29.74
2019-06-27T15:10:10.078Z,30.34
2019-06-27T15:12:56.440Z,33.14
2019-06-27T15:15:16.177Z,33.08
2019-06-27T15:17:47.297Z,31.85
2019-06-27T15:20:23.014Z,31.40
2019-06-27T15:22:53.366Z,29.83
2019-06-27T15:25:28.213Z,30.71
2019-06-27T15:28:06.295Z,32.27
2019-06-27T15:30:37.461Z,30.88
2019-06-27T15:33:08.468Z,30.76
2019-06-27T15:35:51.754Z,32.39
2019-06-27T15:49:47.191Z,41.05
2019-06-27T15:52:31.860Z,42.83
2019-06-27T16:06:08.762Z,42.40
2019-06-27T16:08:35.792Z,41.98
2019-06-27T16:11:36.984Z,43.20
2019-06-27T16:14:12.522Z,43.23
2019-06-27T16:16:59.958Z,43.32
2019-06-27T16:20:03.708Z,43.40
2019-06-27T16:22:36.044Z,43.55
2019-06-27T16:25:07.793Z,44.36
2019-06-27T16:28:07.260Z,44.52
2019-06-27T16:30:42.171Z,44.29
2019-06-27T16:33:33.660Z,43.48
2019-06-27T16:36:04.577Z,44.05
2019-06-27T16:38:38.811Z,42.47
2019-06-27T16:56:23.695Z,42.93
2019-06-27T16:59:09.873Z,43.91
2019-06-27T17:05:13.129Z,42.61
2019-06-27T17:08:05.234Z,41.40
2019-06-27T17:10:58.547Z,42.23
2019-06-27T17:13:47.519Z,43.38
2019-06-27T17:16:17.969Z,42.89
2019-06-27T17:22:08.196Z,43.07
2019-06-27T17:25:03.776Z,41.75
2019-06-27T17:27:48.385Z,41.76
2019-06-27T17:30:44.866Z,40.88
2019-06-27T17:33:17.471Z,40.97
2019-06-27T17:35:51.061Z,40.74
2019-06-27T17:38:21.684Z,41.08
2019-06-27T17:40:51.962Z,42.02
2019-06-27T17:43:22.407Z,40.38
2019-06-27T17:46:06.073Z,39.75
2019-06-27T17:48:36.758Z,40.09
2019-06-27T17:51:08.097Z,39.60
2019-06-27T17:53:39.013Z,41.00
2019-06-27T17:56:09.187Z,40.17
2019-06-27T17:58:39.523Z,41.20
2019-06-27T18:01:13.077Z,41.12
2019-06-27T18:03:47.433Z,40.76
2019-06-27T18:06:18.521Z,40.24
2019-06-27T18:08:55.842Z,39.98
2019-06-27T18:12:06.103Z,40.34
2019-06-27T18:17:33.092Z,39.00
2019-06-27T18:19:56.412Z,39.29
2019-06-27T18:22:28.554Z,40.89
2019-06-27T18:25:16.221Z,41.80
2019-06-27T18:27:48.439Z,42.35
2019-06-27T18:31:18.245Z,40.93
2019-06-27T18:33:57.838Z,39.91
2019-06-27T18:36:37.650Z,41.06
2019-06-27T18:39:16.267Z,41.32
2019-06-27T18:44:48.447Z,39.87
2019-06-27T18:51:43.747Z,38.44
2019-06-27T18:54:24.055Z,39.63
2019-06-27T18:57:12.612Z,39.83
2019-06-27T18:59:53.930Z,38.64
2019-06-27T19:02:25.447Z,37.52
2019-06-27T19:05:05.315Z,37.16
2019-06-27T19:07:46.785Z,37.84
2019-06-27T19:10:38.467Z,38.48
2019-06-27T19:13:13.344Z,38.98
2019-06-27T19:18:45.951Z,39.30
2019-06-27T19:25:22.961Z,40.57
2019-06-27T19:28:38.988Z,39.65
2019-06-27T19:34:55.636Z,41.54
2019-06-27T19:37:30.822Z,41.22
2019-06-27T19:40:31.324Z,41.13
2019-06-27T19:43:30.891Z,41.89
2019-06-27T19:46:14.735Z,41.58
2019-06-27T19:48:47.385Z,41.57
2019-06-27T19:51:19.006Z,41.39
2019-06-27T19:53:53.635Z,41.29
2019-06-27T19:59:44.455Z,39.38
2019-06-27T20:02:14.828Z,40.72
2019-06-27T20:08:19.406Z,39.15
2019-06-27T20:13:29.697Z,39.57
2019-06-27T20:16:28.451Z,41.94
2019-06-27T20:18:59.894Z,41.51
2019-06-27T20:22:14.244Z,41.54
2019-06-27T20:24:59.821Z,41.17
2019-06-27T20:27:30.474Z,41.49
2019-06-27T20:30:15.431Z,42.05
2019-06-27T20:33:01.925Z,42.45
2019-06-27T20:35:32.318Z,44.21
2019-06-27T20:38:34.408Z,44.22
2019-06-27T20:40:53.740Z,45.24
2019-06-27T20:43:23.958Z,46.27
2019-06-27T20:46:39.039Z,46.63
2019-06-27T20:49:36.961Z,46.17
2019-06-27T20:52:07.090Z,47.51
2019-06-27T20:54:41.414Z,47.17
2019-06-27T20:57:12.067Z,47.86
2019-06-27T20:59:42.515Z,47.69
2019-06-27T21:02:12.869Z,48.36
2019-06-27T21:04:44.242Z,48.91
2019-06-27T21:07:14.537Z,47.89
2019-06-27T21:09:44.879Z,48.72
2019-06-27T21:12:22.886Z,49.81
2019-06-27T21:14:53.443Z,50.64
2019-06-27T21:17:24.465Z,51.02
2019-06-27T21:19:55.027Z,50.66
2019-06-27T21:22:26.538Z,50.94
2019-06-27T21:24:56.941Z,51.46
2019-06-27T21:27:27.218Z,51.93
2019-06-27T21:30:01.379Z,52.46
2019-06-27T21:32:32.237Z,52.75
2019-06-27T21:35:02.555Z,52.69
2019-06-27T21:37:33.043Z,53.30
2019-06-27T21:40:03.448Z,53.38
2019-06-27T21:42:37.111Z,53.16
2019-06-27T21:45:08.768Z,53.19
2019-06-27T21:47:44.414Z,53.61
2019-06-27T21:50:18.321Z,54.22
2019-06-27T21:52:49.792Z,54.55
2019-06-27T21:55:22.118Z,54.00
2019-06-27T21:58:00.124Z,54.28
2019-06-27T22:00:36.011Z,54.29
2019-06-27T22:03:13.167Z,54.39
2019-06-27T22:05:44.046Z,54.20
2019-06-27T22:08:14.256Z,54.26
2019-06-27T22:10:44.795Z,54.84
2019-06-27T22:13:15.206Z,54.90
2019-06-27T22:15:47.942Z,54.88
2019-06-27T22:18:18.539Z,54.35
2019-06-27T22:20:49.935Z,54.18
2019-06-27T22:23:20.065Z,55.59
2019-06-27T22:25:50.547Z,55.15
2019-06-27T22:28:21.013Z,55.67
2019-06-27T22:30:52.587Z,56.43
2019-06-27T22:33:25.742Z,56.83
2019-06-27T22:35:55.899Z,56.98
2019-06-27T22:38:43.391Z,57.46
2019-06-27T22:41:31.345Z,57.68
2019-06-27T22:44:19.166Z,57.92
2019-06-27T22:47:08.003Z,58.11
2019-06-27T22:49:40.805Z,57.88
2019-06-27T22:52:45.117Z,58.68
2019-06-27T22:55:22.915Z,58.78
2019-06-27T22:57:53.986Z,58.91
2019-06-27T23:00:24.339Z,59.46
2019-06-27T23:02:54.421Z,59.82
2019-06-27T23:05:24.517Z,60.63
2019-06-27T23:07:54.613Z,60.57
2019-06-27T23:10:25.029Z,60.98
2019-06-27T23:12:55.416Z,61.03
2019-06-27T23:15:25.500Z,61.93
2019-06-27T23:17:58.021Z,61.92
2019-06-27T23:20:28.161Z,62.33
2019-06-27T23:22:58.313Z,62.34
2019-06-27T23:25:28.809Z,62.86
2019-06-27T23:27:58.955Z,63.58
2019-06-27T23:30:29.349Z,64.03
2019-06-27T23:32:59.459Z,64.45
2019-06-27T23:35:29.874Z,64.51
2019-06-27T23:37:59.982Z,65.22
2019-06-27T23:40:32.937Z,65.74
2019-06-27T23:43:02.817Z,65.57
2019-06-27T23:45:34.057Z,66.16
2019-06-27T23:48:04.294Z,65.80
2019-06-27T23:50:39.752Z,66.33
2019-06-27T23:53:10.081Z,66.77
2019-06-27T23:55:40.228Z,67.42
2019-06-27T23:58:10.326Z,67.54
